sensor_id;sensor_type;location;lat;lon;timestamp;pressure;altitude;pressure_sealevel;temperature;humidity
33781;BME280;20097;50.832;19.100;2023-05-19T00:00:26;99314.09;;;8.33;100.00
33781;BME280;20097;50.832;19.100;2023-05-19T00:05:33;99309.47;;;8.37;100.00
33781;BME280;20097;50.832;19.100;2023-05-19T00:10:40;99314.50;;;8.29;100.00
33781;BME280;20097;50.832;19.100;2023-05-19T00:15:45;99301.78;;;8.26;100.00
33781;BME280;20097;50.832;19.100;2023-05-19T00:20:49;99291.91;;;8.29;100.00
33781;BME280;20097;50.832;19.100;2023-05-19T00:25:55;99288.63;;;8.27;100.00
33781;BME280;20097;50.832;19.100;2023-05-19T00:31:00;99296.81;;;8.23;100.00
33781;BME280;20097;50.832;19.100;2023-05-19T00:36:04;99294.50;;;8.29;100.00
33781;BME280;20097;50.832;19.100;2023-05-19T00:41:10;99292.44;;;8.23;100.00
33781;BME280;20097;50.832;19.100;2023-05-19T00:46:14;99296.91;;;8.21;100.00
33781;BME280;20097;50.832;19.100;2023-05-19T00:51:18;99288.56;;;8.18;100.00
33781;BME280;20097;50.832;19.100;2023-05-19T00:56:24;99283.91;;;8.21;100.00
33781;BME280;20097;50.832;19.100;2023-05-19T01:01:28;99279.97;;;8.17;100.00
33781;BME280;20097;50.832;19.100;2023-05-19T01:06:34;99279.69;;;8.20;100.00
33781;BME280;20097;50.832;19.100;2023-05-19T01:11:40;99280.75;;;8.18;100.00
33781;BME280;20097;50.832;19.100;2023-05-19T01:16:47;99276.81;;;8.14;100.00
33781;BME280;20097;50.832;19.100;2023-05-19T01:22:13;99280.38;;;8.22;100.00
33781;BME280;20097;50.832;19.100;2023-05-19T01:27:40;99274.91;;;8.16;100.00
33781;BME280;20097;50.832;19.100;2023-05-19T01:32:47;99278.97;;;8.09;100.00
33781;BME280;20097;50.832;19.100;2023-05-19T01:37:54;99264.72;;;8.03;100.00
33781;BME280;20097;50.832;19.100;2023-05-19T01:43:00;99266.94;;;8.08;100.00
33781;BME280;20097;50.832;19.100;2023-05-19T01:48:06;99256.94;;;8.03;100.00
33781;BME280;20097;50.832;19.100;2023-05-19T01:53:13;99251.19;;;8.00;100.00
33781;BME280;20097;50.832;19.100;2023-05-19T01:58:22;99264.19;;;8.00;100.00
33781;BME280;20097;50.832;19.100;2023-05-19T02:03:46;99263.50;;;8.07;100.00
33781;BME280;20097;50.832;19.100;2023-05-19T02:08:56;99258.16;;;7.99;100.00
33781;BME280;20097;50.832;19.100;2023-05-19T02:14:10;99252.28;;;7.97;100.00
33781;BME280;20097;50.832;19.100;2023-05-19T02:19:22;99254.59;;;8.00;100.00
33781;BME280;20097;50.832;19.100;2023-05-19T02:24:29;99247.34;;;8.04;100.00
33781;BME280;20097;50.832;19.100;2023-05-19T02:29:33;99248.06;;;8.06;100.00
33781;BME280;20097;50.832;19.100;2023-05-19T02:34:39;99243.53;;;8.08;100.00
33781;BME280;20097;50.832;19.100;2023-05-19T02:39:46;99233.28;;;8.06;100.00
33781;BME280;20097;50.832;19.100;2023-05-19T02:44:49;99233.56;;;8.13;100.00
33781;BME280;20097;50.832;19.100;2023-05-19T02:49:55;99236.97;;;8.13;100.00
33781;BME280;20097;50.832;19.100;2023-05-19T02:54:59;99235.88;;;8.16;100.00
33781;BME280;20097;50.832;19.100;2023-05-19T03:00:05;99225.34;;;8.17;100.00
33781;BME280;20097;50.832;19.100;2023-05-19T03:05:11;99238.38;;;8.27;100.00
33781;BME280;20097;50.832;19.100;2023-05-19T03:10:16;99227.84;;;8.28;100.00
33781;BME280;20097;50.832;19.100;2023-05-19T03:15:20;99227.41;;;8.14;100.00
33781;BME280;20097;50.832;19.100;2023-05-19T03:20:27;99219.31;;;8.17;100.00
33781;BME280;20097;50.832;19.100;2023-05-19T03:25:32;99216.75;;;8.26;100.00
33781;BME280;20097;50.832;19.100;2023-05-19T03:30:36;99214.84;;;8.28;100.00
33781;BME280;20097;50.832;19.100;2023-05-19T03:35:49;99216.88;;;8.34;100.00
33781;BME280;20097;50.832;19.100;2023-05-19T03:40:55;99212.25;;;8.38;100.00
33781;BME280;20097;50.832;19.100;2023-05-19T03:45:59;99221.97;;;8.46;100.00
33781;BME280;20097;50.832;19.100;2023-05-19T03:51:30;99221.84;;;8.47;100.00
33781;BME280;20097;50.832;19.100;2023-05-19T03:56:43;99221.56;;;8.50;100.00
33781;BME280;20097;50.832;19.100;2023-05-19T04:01:48;99223.03;;;8.53;100.00
33781;BME280;20097;50.832;19.100;2023-05-19T04:06:54;99232.38;;;8.65;100.00
33781;BME280;20097;50.832;19.100;2023-05-19T04:11:59;99243.16;;;8.79;100.00
33781;BME280;20097;50.832;19.100;2023-05-19T04:17:04;99241.75;;;8.85;100.00
33781;BME280;20097;50.832;19.100;2023-05-19T04:22:10;99263.41;;;8.95;100.00
33781;BME280;20097;50.832;19.100;2023-05-19T04:27:14;99248.91;;;8.92;100.00
33781;BME280;20097;50.832;19.100;2023-05-19T04:32:19;99244.50;;;9.02;100.00
33781;BME280;20097;50.832;19.100;2023-05-19T04:37:27;99247.34;;;9.18;100.00
33781;BME280;20097;50.832;19.100;2023-05-19T04:42:32;99248.03;;;9.20;100.00
33781;BME280;20097;50.832;19.100;2023-05-19T04:47:38;99256.84;;;9.37;100.00
33781;BME280;20097;50.832;19.100;2023-05-19T04:52:45;99256.84;;;9.37;100.00
33781;BME280;20097;50.832;19.100;2023-05-19T04:57:49;99253.94;;;9.49;100.00
33781;BME280;20097;50.832;19.100;2023-05-19T05:02:55;99256.22;;;9.62;100.00
33781;BME280;20097;50.832;19.100;2023-05-19T05:08:04;99251.59;;;9.46;100.00
33781;BME280;20097;50.832;19.100;2023-05-19T05:13:15;99253.66;;;9.52;100.00
33781;BME280;20097;50.832;19.100;2023-05-19T05:18:19;99247.03;;;9.58;100.00
33781;BME280;20097;50.832;19.100;2023-05-19T05:23:26;99242.34;;;9.61;100.00
33781;BME280;20097;50.832;19.100;2023-05-19T05:28:31;99255.25;;;9.63;100.00
33781;BME280;20097;50.832;19.100;2023-05-19T05:33:36;99244.97;;;9.61;100.00
33781;BME280;20097;50.832;19.100;2023-05-19T05:38:42;99257.69;;;9.74;100.00
33781;BME280;20097;50.832;19.100;2023-05-19T05:43:46;99266.59;;;9.99;100.00
33781;BME280;20097;50.832;19.100;2023-05-19T05:48:51;99260.13;;;10.03;100.00
33781;BME280;20097;50.832;19.100;2023-05-19T05:53:57;99253.31;;;9.92;100.00
33781;BME280;20097;50.832;19.100;2023-05-19T05:59:09;99261.91;;;10.02;100.00
33781;BME280;20097;50.832;19.100;2023-05-19T06:04:14;99267.94;;;10.03;100.00
33781;BME280;20097;50.832;19.100;2023-05-19T06:09:20;99273.91;;;10.22;100.00
33781;BME280;20097;50.832;19.100;2023-05-19T06:14:25;99274.59;;;10.42;100.00
33781;BME280;20097;50.832;19.100;2023-05-19T06:19:47;99276.00;;;10.54;100.00
33781;BME280;20097;50.832;19.100;2023-05-19T06:24:53;99289.72;;;10.56;100.00
33781;BME280;20097;50.832;19.100;2023-05-19T06:29:57;99298.31;;;10.66;100.00
33781;BME280;20097;50.832;19.100;2023-05-19T06:35:06;99301.38;;;10.61;100.00
33781;BME280;20097;50.832;19.100;2023-05-19T06:40:12;99295.53;;;10.67;100.00
33781;BME280;20097;50.832;19.100;2023-05-19T06:45:18;99284.91;;;10.86;100.00
33781;BME280;20097;50.832;19.100;2023-05-19T06:50:26;99292.91;;;10.85;100.00
33781;BME280;20097;50.832;19.100;2023-05-19T06:55:32;99283.81;;;10.89;100.00
33781;BME280;20097;50.832;19.100;2023-05-19T07:00:50;99291.78;;;11.05;100.00
33781;BME280;20097;50.832;19.100;2023-05-19T07:05:55;99278.50;;;10.98;100.00
33781;BME280;20097;50.832;19.100;2023-05-19T07:11:02;99277.03;;;11.22;100.00
33781;BME280;20097;50.832;19.100;2023-05-19T07:16:06;99288.41;;;11.38;100.00
33781;BME280;20097;50.832;19.100;2023-05-19T07:21:11;99280.84;;;11.09;100.00
33781;BME280;20097;50.832;19.100;2023-05-19T07:26:16;99277.19;;;11.20;100.00
33781;BME280;20097;50.832;19.100;2023-05-19T07:31:21;99275.22;;;11.22;100.00
33781;BME280;20097;50.832;19.100;2023-05-19T07:36:25;99277.38;;;11.52;100.00
33781;BME280;20097;50.832;19.100;2023-05-19T07:41:31;99280.84;;;11.61;100.00
33781;BME280;20097;50.832;19.100;2023-05-19T07:46:37;99286.50;;;11.74;100.00
33781;BME280;20097;50.832;19.100;2023-05-19T07:51:42;99285.16;;;11.70;100.00
33781;BME280;20097;50.832;19.100;2023-05-19T07:56:47;99281.69;;;11.95;100.00
33781;BME280;20097;50.832;19.100;2023-05-19T08:01:51;99279.69;;;11.89;100.00
33781;BME280;20097;50.832;19.100;2023-05-19T08:06:55;99286.34;;;11.75;100.00
33781;BME280;20097;50.832;19.100;2023-05-19T08:12:02;99271.19;;;11.61;100.00
33781;BME280;20097;50.832;19.100;2023-05-19T08:17:06;99271.03;;;11.88;100.00
33781;BME280;20097;50.832;19.100;2023-05-19T08:22:11;99264.69;;;11.99;100.00
33781;BME280;20097;50.832;19.100;2023-05-19T08:27:16;99267.28;;;11.91;100.00
33781;BME280;20097;50.832;19.100;2023-05-19T08:32:20;99273.25;;;12.17;100.00
33781;BME280;20097;50.832;19.100;2023-05-19T08:37:24;99281.25;;;12.15;100.00
33781;BME280;20097;50.832;19.100;2023-05-19T08:42:30;99276.34;;;12.12;100.00
33781;BME280;20097;50.832;19.100;2023-05-19T08:47:34;99283.81;;;12.73;100.00
33781;BME280;20097;50.832;19.100;2023-05-19T08:52:44;99287.28;;;13.06;100.00
33781;BME280;20097;50.832;19.100;2023-05-19T08:57:56;99282.84;;;13.06;100.00
33781;BME280;20097;50.832;19.100;2023-05-19T09:03:00;99295.22;;;12.40;100.00
33781;BME280;20097;50.832;19.100;2023-05-19T09:08:19;99290.47;;;12.27;100.00
33781;BME280;20097;50.832;19.100;2023-05-19T09:13:26;99287.19;;;12.25;100.00
33781;BME280;20097;50.832;19.100;2023-05-19T09:18:30;99274.47;;;12.63;100.00
33781;BME280;20097;50.832;19.100;2023-05-19T09:23:34;99269.91;;;12.81;100.00
33781;BME280;20097;50.832;19.100;2023-05-19T09:28:40;99270.06;;;12.79;100.00
33781;BME280;20097;50.832;19.100;2023-05-19T09:33:44;99279.03;;;12.53;100.00
33781;BME280;20097;50.832;19.100;2023-05-19T09:38:48;99279.22;;;12.59;100.00
33781;BME280;20097;50.832;19.100;2023-05-19T09:43:55;99280.34;;;12.49;100.00
33781;BME280;20097;50.832;19.100;2023-05-19T09:49:03;99281.56;;;12.12;100.00
33781;BME280;20097;50.832;19.100;2023-05-19T09:54:13;99288.97;;;12.25;100.00
33781;BME280;20097;50.832;19.100;2023-05-19T09:59:19;99282.34;;;11.97;100.00
33781;BME280;20097;50.832;19.100;2023-05-19T10:04:27;99280.59;;;12.21;100.00
33781;BME280;20097;50.832;19.100;2023-05-19T10:09:32;99283.59;;;12.42;100.00
33781;BME280;20097;50.832;19.100;2023-05-19T10:14:38;99284.78;;;12.88;100.00
33781;BME280;20097;50.832;19.100;2023-05-19T10:19:43;99284.44;;;12.91;100.00
33781;BME280;20097;50.832;19.100;2023-05-19T10:24:48;99286.09;;;12.76;100.00
33781;BME280;20097;50.832;19.100;2023-05-19T10:29:54;99293.47;;;12.57;100.00
33781;BME280;20097;50.832;19.100;2023-05-19T10:40:27;99291.28;;;12.44;100.00
33781;BME280;20097;50.832;19.100;2023-05-19T10:45:38;99282.13;;;12.40;100.00
33781;BME280;20097;50.832;19.100;2023-05-19T10:50:45;99283.91;;;12.39;100.00
33781;BME280;20097;50.832;19.100;2023-05-19T10:55:50;99283.56;;;12.26;100.00
33781;BME280;20097;50.832;19.100;2023-05-19T11:01:00;99277.25;;;12.53;100.00
33781;BME280;20097;50.832;19.100;2023-05-19T11:06:19;99276.91;;;12.56;100.00
33781;BME280;20097;50.832;19.100;2023-05-19T11:11:24;99274.78;;;12.60;100.00
33781;BME280;20097;50.832;19.100;2023-05-19T11:16:31;99272.66;;;12.95;100.00
33781;BME280;20097;50.832;19.100;2023-05-19T11:21:41;99276.44;;;12.93;100.00
33781;BME280;20097;50.832;19.100;2023-05-19T11:26:46;99272.84;;;12.78;100.00
33781;BME280;20097;50.832;19.100;2023-05-19T11:31:52;99275.78;;;12.59;100.00
33781;BME280;20097;50.832;19.100;2023-05-19T11:36:57;99272.81;;;12.46;100.00
33781;BME280;20097;50.832;19.100;2023-05-19T11:42:01;99280.38;;;12.57;100.00
33781;BME280;20097;50.832;19.100;2023-05-19T11:47:07;99279.72;;;12.79;100.00
33781;BME280;20097;50.832;19.100;2023-05-19T11:52:11;99273.63;;;12.62;100.00
33781;BME280;20097;50.832;19.100;2023-05-19T11:57:16;99284.16;;;12.86;100.00
33781;BME280;20097;50.832;19.100;2023-05-19T12:02:23;99276.91;;;12.96;100.00
33781;BME280;20097;50.832;19.100;2023-05-19T12:07:27;99274.78;;;13.00;100.00
33781;BME280;20097;50.832;19.100;2023-05-19T12:12:31;99271.00;;;13.34;100.00
33781;BME280;20097;50.832;19.100;2023-05-19T12:17:39;99266.78;;;13.25;100.00
33781;BME280;20097;50.832;19.100;2023-05-19T12:22:43;99269.25;;;13.03;100.00
33781;BME280;20097;50.832;19.100;2023-05-19T12:27:48;99268.94;;;13.14;100.00
33781;BME280;20097;50.832;19.100;2023-05-19T12:32:56;99273.34;;;12.89;100.00
33781;BME280;20097;50.832;19.100;2023-05-19T12:38:03;99270.88;;;12.96;100.00
33781;BME280;20097;50.832;19.100;2023-05-19T12:43:12;99265.81;;;12.94;100.00
33781;BME280;20097;50.832;19.100;2023-05-19T12:48:22;99265.81;;;12.94;100.00
33781;BME280;20097;50.832;19.100;2023-05-19T12:53:26;99263.03;;;13.04;100.00
33781;BME280;20097;50.832;19.100;2023-05-19T12:58:32;99263.00;;;12.96;100.00
33781;BME280;20097;50.832;19.100;2023-05-19T13:03:40;99261.03;;;12.98;100.00
33781;BME280;20097;50.832;19.100;2023-05-19T13:08:44;99251.41;;;13.06;100.00
33781;BME280;20097;50.832;19.100;2023-05-19T13:13:49;99257.13;;;13.10;100.00
33781;BME280;20097;50.832;19.100;2023-05-19T13:18:55;99260.34;;;13.36;100.00
33781;BME280;20097;50.832;19.100;2023-05-19T13:24:01;99254.09;;;13.45;100.00
33781;BME280;20097;50.832;19.100;2023-05-19T13:29:06;99256.66;;;13.69;100.00
33781;BME280;20097;50.832;19.100;2023-05-19T13:34:12;99263.56;;;13.62;100.00
33781;BME280;20097;50.832;19.100;2023-05-19T13:39:17;99263.78;;;13.44;100.00
33781;BME280;20097;50.832;19.100;2023-05-19T13:44:21;99256.41;;;13.48;100.00
33781;BME280;20097;50.832;19.100;2023-05-19T13:49:29;99256.44;;;13.40;100.00
33781;BME280;20097;50.832;19.100;2023-05-19T13:54:33;99250.03;;;13.34;100.00
33781;BME280;20097;50.832;19.100;2023-05-19T13:59:37;99249.84;;;13.44;100.00
33781;BME280;20097;50.832;19.100;2023-05-19T14:05:04;99258.75;;;13.27;100.00
33781;BME280;20097;50.832;19.100;2023-05-19T14:10:09;99250.75;;;13.20;100.00
33781;BME280;20097;50.832;19.100;2023-05-19T14:15:13;99254.50;;;13.18;100.00
33781;BME280;20097;50.832;19.100;2023-05-19T14:20:19;99253.03;;;13.23;100.00
33781;BME280;20097;50.832;19.100;2023-05-19T14:25:24;99250.53;;;13.30;100.00
33781;BME280;20097;50.832;19.100;2023-05-19T14:30:27;99257.09;;;13.26;100.00
33781;BME280;20097;50.832;19.100;2023-05-19T14:35:33;99253.50;;;13.27;100.00
33781;BME280;20097;50.832;19.100;2023-05-19T14:40:37;99253.38;;;13.12;100.00
33781;BME280;20097;50.832;19.100;2023-05-19T14:45:43;99257.78;;;13.12;100.00
33781;BME280;20097;50.832;19.100;2023-05-19T14:50:49;99261.34;;;12.95;100.00
33781;BME280;20097;50.832;19.100;2023-05-19T14:55:53;99257.28;;;12.76;100.00
33781;BME280;20097;50.832;19.100;2023-05-19T15:00:57;99251.72;;;12.87;100.00
33781;BME280;20097;50.832;19.100;2023-05-19T15:06:06;99255.78;;;12.90;100.00
33781;BME280;20097;50.832;19.100;2023-05-19T15:11:11;99260.06;;;12.83;100.00
33781;BME280;20097;50.832;19.100;2023-05-19T15:16:15;99262.19;;;12.95;100.00
33781;BME280;20097;50.832;19.100;2023-05-19T15:21:21;99259.91;;;12.92;100.00
33781;BME280;20097;50.832;19.100;2023-05-19T15:26:26;99264.66;;;12.81;100.00
33781;BME280;20097;50.832;19.100;2023-05-19T15:31:31;99252.53;;;12.80;100.00
33781;BME280;20097;50.832;19.100;2023-05-19T15:36:40;99258.09;;;12.77;100.00
33781;BME280;20097;50.832;19.100;2023-05-19T15:41:44;99254.34;;;12.63;100.00
33781;BME280;20097;50.832;19.100;2023-05-19T15:46:48;99251.56;;;12.57;100.00
33781;BME280;20097;50.832;19.100;2023-05-19T15:51:54;99257.63;;;12.65;100.00
33781;BME280;20097;50.832;19.100;2023-05-19T15:56:58;99255.13;;;12.48;100.00
33781;BME280;20097;50.832;19.100;2023-05-19T16:02:02;99255.78;;;12.50;100.00
33781;BME280;20097;50.832;19.100;2023-05-19T16:07:08;99250.72;;;12.40;100.00
33781;BME280;20097;50.832;19.100;2023-05-19T16:12:12;99240.06;;;12.41;100.00
33781;BME280;20097;50.832;19.100;2023-05-19T16:17:16;99247.75;;;12.43;100.00
33781;BME280;20097;50.832;19.100;2023-05-19T16:22:22;99247.59;;;12.44;100.00
33781;BME280;20097;50.832;19.100;2023-05-19T16:27:27;99251.88;;;12.37;100.00
33781;BME280;20097;50.832;19.100;2023-05-19T16:32:31;99250.22;;;12.36;100.00
33781;BME280;20097;50.832;19.100;2023-05-19T16:37:37;99257.88;;;12.30;100.00
33781;BME280;20097;50.832;19.100;2023-05-19T16:42:41;99249.88;;;12.39;100.00
33781;BME280;20097;50.832;19.100;2023-05-19T16:47:45;99252.50;;;12.31;100.00
33781;BME280;20097;50.832;19.100;2023-05-19T16:52:51;99254.59;;;12.28;100.00
33781;BME280;20097;50.832;19.100;2023-05-19T16:57:55;99252.81;;;12.20;100.00
33781;BME280;20097;50.832;19.100;2023-05-19T17:02:59;99259.47;;;12.15;100.00
33781;BME280;20097;50.832;19.100;2023-05-19T17:08:05;99259.31;;;12.08;100.00
33781;BME280;20097;50.832;19.100;2023-05-19T17:13:10;99258.19;;;12.19;100.00
33781;BME280;20097;50.832;19.100;2023-05-19T17:18:14;99260.47;;;12.14;100.00
33781;BME280;20097;50.832;19.100;2023-05-19T17:23:20;99267.13;;;12.00;100.00
33781;BME280;20097;50.832;19.100;2023-05-19T17:28:24;99258.84;;;12.05;100.00
33781;BME280;20097;50.832;19.100;2023-05-19T17:33:28;99261.91;;;12.00;100.00
33781;BME280;20097;50.832;19.100;2023-05-19T17:38:34;99256.50;;;12.02;100.00
33781;BME280;20097;50.832;19.100;2023-05-19T17:43:41;99256.03;;;11.98;100.00
33781;BME280;20097;50.832;19.100;2023-05-19T17:48:46;99265.50;;;11.99;100.00
33781;BME280;20097;50.832;19.100;2023-05-19T17:53:52;99273.31;;;11.91;100.00
33781;BME280;20097;50.832;19.100;2023-05-19T17:58:56;99269.28;;;11.97;100.00
33781;BME280;20097;50.832;19.100;2023-05-19T18:04:01;99271.38;;;11.93;100.00
33781;BME280;20097;50.832;19.100;2023-05-19T18:09:06;99274.94;;;11.84;100.00
33781;BME280;20097;50.832;19.100;2023-05-19T18:14:11;99273.47;;;11.82;100.00
33781;BME280;20097;50.832;19.100;2023-05-19T18:19:16;99269.69;;;11.84;100.00
33781;BME280;20097;50.832;19.100;2023-05-19T18:24:22;99275.59;;;11.86;100.00
33781;BME280;20097;50.832;19.100;2023-05-19T18:29:26;99281.19;;;11.91;100.00
33781;BME280;20097;50.832;19.100;2023-05-19T18:34:30;99288.19;;;11.91;100.00
33781;BME280;20097;50.832;19.100;2023-05-19T18:39:35;99294.75;;;11.87;100.00
33781;BME280;20097;50.832;19.100;2023-05-19T18:44:39;99296.00;;;11.83;100.00
33781;BME280;20097;50.832;19.100;2023-05-19T18:49:44;99301.88;;;11.77;100.00
33781;BME280;20097;50.832;19.100;2023-05-19T18:54:49;99303.66;;;11.76;100.00
33781;BME280;20097;50.832;19.100;2023-05-19T18:59:54;99300.56;;;11.81;100.00
33781;BME280;20097;50.832;19.100;2023-05-19T19:04:58;99300.56;;;11.81;100.00
33781;BME280;20097;50.832;19.100;2023-05-19T19:10:04;99304.66;;;11.75;100.00
33781;BME280;20097;50.832;19.100;2023-05-19T19:15:09;99300.94;;;11.86;100.00
33781;BME280;20097;50.832;19.100;2023-05-19T19:20:13;99307.97;;;11.85;100.00
33781;BME280;20097;50.832;19.100;2023-05-19T19:25:19;99311.56;;;11.84;100.00
33781;BME280;20097;50.832;19.100;2023-05-19T19:30:25;99311.41;;;11.86;100.00
33781;BME280;20097;50.832;19.100;2023-05-19T19:35:30;99317.44;;;11.86;100.00
33781;BME280;20097;50.832;19.100;2023-05-19T19:40:35;99313.78;;;11.71;100.00
33781;BME280;20097;50.832;19.100;2023-05-19T19:45:39;99321.63;;;11.71;100.00
33781;BME280;20097;50.832;19.100;2023-05-19T19:50:44;99321.66;;;11.79;100.00
33781;BME280;20097;50.832;19.100;2023-05-19T19:55:56;99323.91;;;11.74;100.00
33781;BME280;20097;50.832;19.100;2023-05-19T20:01:02;99329.63;;;11.70;100.00
33781;BME280;20097;50.832;19.100;2023-05-19T20:06:07;99323.25;;;11.64;100.00
33781;BME280;20097;50.832;19.100;2023-05-19T20:11:13;99321.59;;;11.63;100.00
33781;BME280;20097;50.832;19.100;2023-05-19T20:16:17;99317.09;;;11.56;100.00
33781;BME280;20097;50.832;19.100;2023-05-19T20:21:21;99318.25;;;11.61;100.00
33781;BME280;20097;50.832;19.100;2023-05-19T20:26:27;99315.50;;;11.63;100.00
33781;BME280;20097;50.832;19.100;2023-05-19T20:31:32;99313.75;;;11.63;100.00
33781;BME280;20097;50.832;19.100;2023-05-19T20:36:36;99314.75;;;11.70;100.00
33781;BME280;20097;50.832;19.100;2023-05-19T20:41:41;99316.94;;;11.57;100.00
33781;BME280;20097;50.832;19.100;2023-05-19T20:46:46;99312.53;;;11.58;100.00
33781;BME280;20097;50.832;19.100;2023-05-19T20:51:50;99310.25;;;11.63;100.00
33781;BME280;20097;50.832;19.100;2023-05-19T20:56:55;99306.84;;;11.62;100.00
33781;BME280;20097;50.832;19.100;2023-05-19T21:01:59;99299.31;;;11.59;100.00
33781;BME280;20097;50.832;19.100;2023-05-19T21:07:04;99302.88;;;11.58;100.00
33781;BME280;20097;50.832;19.100;2023-05-19T21:12:09;99307.81;;;11.61;100.00
33781;BME280;20097;50.832;19.100;2023-05-19T21:17:14;99300.66;;;11.63;100.00
33781;BME280;20097;50.832;19.100;2023-05-19T21:22:18;99303.41;;;11.62;100.00
33781;BME280;20097;50.832;19.100;2023-05-19T21:27:24;99295.94;;;11.67;100.00
33781;BME280;20097;50.832;19.100;2023-05-19T21:32:28;99293.69;;;11.72;100.00
33781;BME280;20097;50.832;19.100;2023-05-19T21:37:32;99291.38;;;11.69;100.00
33781;BME280;20097;50.832;19.100;2023-05-19T21:42:38;99287.94;;;11.68;100.00
33781;BME280;20097;50.832;19.100;2023-05-19T21:47:42;99296.28;;;11.72;100.00
33781;BME280;20097;50.832;19.100;2023-05-19T21:52:46;99293.50;;;11.65;100.00
33781;BME280;20097;50.832;19.100;2023-05-19T21:57:52;99296.38;;;11.62;100.00
33781;BME280;20097;50.832;19.100;2023-05-19T22:02:56;99298.31;;;11.60;100.00
33781;BME280;20097;50.832;19.100;2023-05-19T22:08:00;99291.97;;;11.63;100.00
33781;BME280;20097;50.832;19.100;2023-05-19T22:13:06;99289.09;;;11.66;100.00
33781;BME280;20097;50.832;19.100;2023-05-19T22:18:10;99293.78;;;11.62;100.00
33781;BME280;20097;50.832;19.100;2023-05-19T22:23:14;99283.94;;;11.56;100.00
33781;BME280;20097;50.832;19.100;2023-05-19T22:28:21;99280.03;;;11.60;100.00
33781;BME280;20097;50.832;19.100;2023-05-19T22:33:25;99283.19;;;11.64;100.00
33781;BME280;20097;50.832;19.100;2023-05-19T22:38:29;99287.44;;;11.65;100.00
33781;BME280;20097;50.832;19.100;2023-05-19T22:43:35;99287.94;;;11.68;100.00
33781;BME280;20097;50.832;19.100;2023-05-19T22:48:39;99279.75;;;11.63;100.00
33781;BME280;20097;50.832;19.100;2023-05-19T22:53:43;99296.19;;;11.56;100.00
33781;BME280;20097;50.832;19.100;2023-05-19T22:58:50;99278.25;;;11.61;100.00
33781;BME280;20097;50.832;19.100;2023-05-19T23:03:54;99281.00;;;11.59;100.00
33781;BME280;20097;50.832;19.100;2023-05-19T23:08:59;99282.28;;;11.55;100.00
33781;BME280;20097;50.832;19.100;2023-05-19T23:14:06;99280.47;;;11.48;100.00
33781;BME280;20097;50.832;19.100;2023-05-19T23:19:10;99286.19;;;11.51;100.00
33781;BME280;20097;50.832;19.100;2023-05-19T23:24:15;99292.84;;;11.46;100.00
33781;BME280;20097;50.832;19.100;2023-05-19T23:29:23;99284.84;;;11.47;100.00
33781;BME280;20097;50.832;19.100;2023-05-19T23:34:27;99291.22;;;11.45;100.00
33781;BME280;20097;50.832;19.100;2023-05-19T23:39:31;99277.84;;;11.48;100.00
33781;BME280;20097;50.832;19.100;2023-05-19T23:44:37;99271.31;;;11.52;100.00
33781;BME280;20097;50.832;19.100;2023-05-19T23:49:41;99271.75;;;11.39;100.00
33781;BME280;20097;50.832;19.100;2023-05-19T23:54:45;99276.66;;;11.42;100.00
33781;BME280;20097;50.832;19.100;2023-05-19T23:59:51;99285.84;;;11.46;100.00
